Latest Weather Observations for Grafton Airport

IDN60801

Issued at 7:35 pm EDT Saturday 29 November 2014 (issued every 30 minutes, with the page automatically refreshed every 10 minutes)

About weather observations | Map of weather stations | Latest weather observations for NSW | Other Formats
Station Details ID: 058161 Name: GRAFTON AIRPORT AWS Lat: -29.76 Lon: 153.03 Height: 25.09 m
Data from the previous 72 hours. | See also: Recent months for locations in New South Wales
Date/Time
EDT
Temp
°C
App
Temp
°C
Dew
Point
Rel
Hum
%
Delta-T
°C
Wind Press
QNH
hPa
Press
MSL
hPa
Rain
since 9 am
mm
Dir
 
Spd
km/h
Gust
km/h
Spd
kts
Gust
kts
29/07:30pm 21.6 19.6 13.8 61 4.5 NE 17 26 9 14 1017.0 1016.9 0.0
29/07:00pm 22.8 19.9 13.0 54 5.6 NE 20 32 11 17 1016.7 1016.6 0.0
29/06:30pm 23.7 20.1 12.0 48 6.6 NNE 22 30 12 16 1016.5 1016.4 0.0
29/06:00pm 24.9 21.7 11.8 44 7.4 NE 20 28 11 15 1016.2 1016.1 0.0
29/05:30pm 25.5 21.9 12.0 43 7.7 NE 22 30 12 16 1015.7 1015.6 0.0
29/05:00pm 26.4 23.4 12.5 42 8.0 NE 20 30 11 16 1015.5 1015.4 0.0
29/04:30pm 27.4 25.0 12.6 40 8.6 NE 17 26 9 14 1015.9 1015.8 0.0
29/04:00pm 27.5 25.6 13.1 41 8.5 NNE 15 26 8 14 1016.3 1016.2 0.0
29/03:30pm 27.7 25.8 14.3 43 8.0 NNE 17 22 9 12 1016.6 1016.5 0.0
29/03:00pm 26.6 23.4 11.9 40 8.4 N 20 28 11 15 1016.7 1016.6 0.0
29/02:30pm 27.5 24.8 13.4 41 8.3 NNE 20 28 11 15 1016.9 1016.8 0.0
29/02:00pm 27.5 25.5 12.7 40 8.6 N 15 20 8 11 1017.4 1017.3 0.0
29/01:30pm 26.9 24.1 13.3 43 8.0 NE 20 26 11 14 1018.0 1017.9 0.0
29/01:00pm 27.0 24.7 13.0 42 8.2 NNE 17 24 9 13 1018.4 1018.3 0.0
29/12:30pm 26.4 25.4 14.5 48 7.1 ENE 13 20 7 11 1018.9 1018.8 0.0
29/12:00pm 25.4 24.3 14.2 50 6.6 N 13 17 7 9 1019.5 1019.4 0.0
29/11:30am 24.4 24.3 13.9 52 6.2 ENE 7 15 4 8 1019.9 1019.8 0.0
29/11:00am 23.7 23.2 13.8 53 5.8 ENE 9 15 5 8 1020.1 1020.0 0.0
29/10:30am 23.6 22.6 13.5 53 5.9 NNE 11 15 6 8 1020.4 1020.3 0.0
29/10:00am 23.2 21.8 12.2 50 6.2 NE 11 17 6 9 1020.5 1020.4 0.0
29/09:30am 23.8 23.0 13.9 54 5.8 N 11 17 6 9 1020.5 1020.4 0.0
29/09:00am 22.3 22.1 13.6 58 5.0 NNE 7 11 4 6 1020.6 1020.5 0.0
29/08:30am 21.9 21.8 14.0 61 4.6 N 7 11 4 6 1020.7 1020.6 0.0
29/08:00am 21.3 22.6 15.2 68 3.6 NNW 2 7 1 4 1020.5 1020.4 0.0
29/07:30am 19.2 21.5 16.8 86 1.4 CALM 0 0 0 0 1020.1 1020.0 0.0
29/07:00am 17.0 19.2 16.5 97 0.3 CALM 0 0 0 0 1020.0 1019.9 0.0
29/06:30am 15.9 17.6 15.3 96 0.3 CALM 0 0 0 0 1019.8 1019.7 0.0
29/06:00am 16.0 17.8 15.5 97 0.3 CALM 0 0 0 0 1019.6 1019.5 0.0
29/05:30am 16.0 17.8 15.4 96 0.3 CALM 0 0 0 0 1019.4 1019.3 0.0
29/05:00am 15.9 17.5 14.9 94 0.6 CALM 0 4 0 2 1019.3 1019.2 0.0
29/04:30am 16.5 18.0 15.7 95 0.5 S 2 9 1 5 1019.0 1018.9 0.0
29/04:00am 16.3 17.0 15.5 95 0.5 S 6 9 3 5 1019.0 1018.9 0.0
29/03:30am 16.3 16.5 15.7 96 0.4 S 9 11 5 6 1019.2 1019.1 0.0
29/03:00am 16.5 18.5 15.9 96 0.4 CALM 0 0 0 0 1019.3 1019.2 0.0
29/02:30am 16.7 17.3 15.9 95 0.5 S 7 9 4 5 1019.4 1019.3 0.0
29/02:00am 17.1 19.0 15.8 92 0.8 CALM 0 0 0 0 1019.5 1019.4 0.0
29/01:30am 17.6 18.8 15.9 90 1.0 S 4 7 2 4 1019.8 1019.7 0.0
29/01:00am 18.0 18.5 15.6 86 1.4 SSE 7 9 4 5 1020.2 1020.1 0.0
29/12:30am 18.9 19.8 16.5 86 1.4 S 7 7 4 4 1020.6 1020.5 0.0
29/12:00am 19.9 22.0 16.2 79 2.2 CALM 0 4 0 2 1020.9 1020.8 0.0
 
Date/Time
EDT
Temp
°C
App
Temp
°C
Dew
Point
Rel
Hum
%
Delta-T
°C
Wind Press
QNH
hPa
Press
MSL
hPa
Rain
since 9 am
mm
Dir
 
Spd
km/h
Gust
km/h
Spd
kts
Gust
kts
28/11:30pm 20.2 21.2 16.4 79 2.3 SSE 6 9 3 5 1021.2 1021.1 0.0
28/11:00pm 20.5 21.6 16.5 78 2.4 SSE 6 7 3 4 1021.3 1021.2 0.0
28/10:30pm 20.4 21.5 16.6 79 2.3 S 6 7 3 4 1021.2 1021.1 0.0
28/10:00pm 20.3 22.5 16.5 79 2.3 CALM 0 0 0 0 1021.1 1021.0 0.0
28/09:30pm 20.4 21.2 16.4 78 2.4 NNE 7 7 4 4 1020.9 1020.8 0.0
28/09:00pm 20.5 21.2 16.1 76 2.6 ESE 7 9 4 5 1020.8 1020.7 0.0
28/08:30pm 20.8 20.8 16.2 75 2.8 ESE 11 17 6 9 1020.5 1020.4 0.0
28/08:00pm 21.1 21.0 15.9 72 3.1 ESE 11 17 6 9 1020.2 1020.1 0.0
28/07:30pm 21.4 21.1 15.5 69 3.5 ESE 11 15 6 8 1020.3 1020.2 0.0
28/07:00pm 22.0 21.1 14.9 64 4.2 ESE 13 20 7 11 1020.2 1020.1 0.0
28/06:30pm 22.5 21.1 14.6 61 4.7 ESE 15 26 8 14 1019.9 1019.8 0.0
28/06:00pm 22.9 21.2 14.7 60 4.8 ESE 17 24 9 13 1019.6 1019.5 0.0
28/05:30pm 23.1 21.1 15.4 62 4.6 E 20 28 11 15 1019.4 1019.3 0.0
28/05:00pm 22.9 21.1 15.5 63 4.4 ESE 19 30 10 16 1019.4 1019.3 0.0
28/04:30pm 23.3 21.7 16.1 64 4.4 ESE 19 28 10 15 1019.6 1019.5 0.0
28/04:00pm 23.5 22.1 15.5 60 4.8 E 17 28 9 15 1019.8 1019.7 0.0
28/03:30pm 24.0 22.2 14.4 55 5.7 ESE 17 30 9 16 1019.9 1019.8 0.0
28/03:00pm 25.5 24.5 15.5 54 6.0 ESE 15 20 8 11 1019.9 1019.8 0.0
28/02:30pm 24.5 22.6 14.3 53 6.0 ESE 17 24 9 13 1020.2 1020.1 0.0
28/02:00pm 24.3 23.6 15.5 58 5.3 ESE 13 20 7 11 1020.5 1020.4 0.0
28/01:30pm 24.3 22.8 14.1 53 6.0 E 15 24 8 13 1020.7 1020.6 0.0
28/01:00pm 24.4 23.7 15.3 57 5.5 ESE 13 28 7 15 1021.0 1020.9 0.0
28/12:30pm 23.7 22.7 15.5 60 4.9 ESE 15 24 8 13 1021.2 1021.1 0.0
28/12:00pm 23.6 22.0 14.9 58 5.2 ESE 17 22 9 12 1021.4 1021.3 0.0
28/11:30am 23.8 21.8 15.0 57 5.3 SSE 19 30 10 16 1021.5 1021.4 0.0
28/11:00am 23.5 21.4 14.8 58 5.2 SSE 19 24 10 13 1021.5 1021.4 0.0
28/10:30am 24.3 22.9 15.5 58 5.3 ESE 17 32 9 17 1021.6 1021.5 0.0
28/10:00am 24.6 22.1 14.1 52 6.2 E 20 28 11 15 1021.4 1021.3 0.0
28/09:30am 24.1 23.1 14.5 55 5.7 ESE 13 26 7 14 1021.5 1021.4 0.0
28/09:00am 23.0 21.4 14.0 57 5.3 SE 15 20 8 11 1021.5 1021.4 2.4
28/08:30am 22.8 22.2 15.6 64 4.3 SSE 13 17 7 9 1021.4 1021.3 2.4
28/08:00am 21.1 20.7 16.1 73 3.0 S 13 17 7 9 1021.3 1021.2 2.4
28/07:30am 19.9 18.9 15.5 76 2.6 S 15 19 8 10 1021.1 1021.0 2.4
28/07:00am 18.6 17.5 15.3 81 1.9 S 15 17 8 9 1020.7 1020.6 2.4
28/06:30am 17.6 17.3 15.4 87 1.3 S 11 13 6 7 1020.3 1020.2 2.4
28/06:00am 16.6 16.6 15.1 91 0.9 SSW 9 11 5 6 1020.3 1020.2 2.4
28/05:30am 16.4 16.3 14.9 91 0.9 SSW 9 11 5 6 1019.9 1019.8 2.4
28/05:00am 17.1 17.0 14.9 87 1.3 SSW 9 11 5 6 1019.6 1019.5 2.4
28/04:30am 17.5 17.4 15.0 85 1.5 SW 9 11 5 6 1019.4 1019.3 2.4
28/04:00am 18.0 18.0 15.3 84 1.6 SSW 9 11 5 6 1019.2 1019.1 2.4
28/03:30am 18.1 17.8 15.5 85 1.5 S 11 13 6 7 1019.3 1019.2 2.4
28/03:00am 18.5 18.6 15.6 83 1.7 SSW 9 13 5 7 1019.5 1019.4 2.4
28/02:30am 18.7 19.0 16.1 85 1.5 SSW 9 13 5 7 1019.7 1019.6 2.4
28/02:00am 19.1 19.4 16.1 83 1.8 SSW 9 11 5 6 1019.9 1019.8 2.4
28/01:30am 19.2 20.1 16.6 85 1.6 SSW 7 9 4 5 1020.0 1019.9 2.4
28/01:00am 19.3 20.3 17.8 91 0.9 S 9 11 5 6 1020.3 1020.2 2.2
28/12:30am 19.3 20.6 17.6 90 1.0 S 7 9 4 5 1020.6 1020.5 2.2
28/12:00am 19.3 20.5 17.4 89 1.2 SSW 7 11 4 6 1020.5 1020.4 2.2
 
Date/Time
EDT
Temp
°C
App
Temp
°C
Dew
Point
Rel
Hum
%
Delta-T
°C
Wind Press
QNH
hPa
Press
MSL
hPa
Rain
since 9 am
mm
Dir
 
Spd
km/h
Gust
km/h
Spd
kts
Gust
kts
27/11:30pm 19.2 20.3 17.9 92 0.8 SSW 9 11 5 6 1020.5 1020.4 2.2
27/11:00pm 19.0 20.4 17.8 93 0.7 SSW 7 11 4 6 1020.5 1020.4 2.2
27/10:30pm 19.1 20.8 18.1 94 0.6 SW 6 9 3 5 1020.6 1020.5 2.2
27/10:29pm 19.1 20.8 18.1 94 0.6 SW 6 9 3 5 1020.6 1020.5 2.2
27/10:00pm 19.3 20.8 18.0 92 0.8 E 7 11 4 6 1020.8 1020.7 0.8
27/09:30pm 19.3 20.2 17.6 90 1.0 SSE 9 15 5 8 1020.5 1020.4 0.4
27/09:18pm 19.7 20.7 17.7 88 1.2 E 9 11 5 6 1020.4 1020.3 0.0
27/09:15pm 19.7 20.9 17.3 86 1.5 ESE 7 11 4 6 1020.3 1020.2 0.0
27/09:00pm 19.9 19.8 16.9 83 1.8 S 13 24 7 13 1020.1 1020.0 0.0
27/08:44pm 20.4 19.7 16.4 78 2.4 S 15 26 8 14 1020.0 1019.9 0.0
27/08:30pm 21.4 20.2 16.1 72 3.2 S 17 24 9 13 1019.9 1019.8 0.0
27/08:00pm 21.5 20.3 16.2 72 3.2 S 17 26 9 14 1019.5 1019.4 0.0
27/07:30pm 21.5 19.6 16.7 74 2.9 S 22 32 12 17 1019.3 1019.2 0.0
27/07:00pm 21.8 20.8 17.6 77 2.6 S 19 32 10 17 1018.9 1018.8 0.0
27/06:30pm 21.9 21.3 18.9 83 1.9 S 20 30 11 16 1018.3 1018.2 0.0
27/06:00pm 21.8 20.6 18.4 81 2.1 S 22 32 12 17 1017.9 1017.8 0.0
27/05:30pm 23.6 20.4 17.3 67 3.9 S 30 44 16 24 1017.5 1017.4 0.0
27/05:03pm 24.0 20.4 17.3 66 4.2 S 32 50 17 27 1017.3 1017.2 0.0
27/05:00pm 24.2 21.4 17.2 65 4.3 S 28 44 15 24 1017.2 1017.1 0.0
27/04:30pm 24.8 21.7 18.3 67 4.1 SSE 32 44 17 24 1016.4 1016.3 0.0
27/04:15pm 24.7 22.4 18.4 68 4.0 S 28 46 15 25 1016.4 1016.3 0.0
27/04:00pm 23.3 20.6 18.4 74 3.1 SSE 30 46 16 25 1016.7 1016.6 0.0
27/03:31pm 22.5 19.9 17.8 75 2.9 SSE 28 54 15 29 1016.8 1016.7 0.0
27/03:30pm 22.9 20.7 17.8 73 3.2 SSE 26 46 14 25 1016.7 1016.6 0.0
27/03:00pm 24.5 23.4 17.7 66 4.2 SSE 20 28 11 15 1016.3 1016.2 0.0
27/02:30pm 26.1 23.8 17.5 59 5.4 SSE 26 44 14 24 1016.0 1015.9 0.0
27/02:11pm 26.5 23.3 17.3 57 5.8 SSE 30 48 16 26 1016.1 1016.0 0.0
27/02:00pm 27.7 25.6 19.0 59 5.6 SSE 28 43 15 23 1016.1 1016.0 0.0
27/01:30pm 27.4 25.6 17.8 55 6.1 SSE 24 37 13 20 1015.9 1015.8 0.0
27/01:00pm 28.0 27.3 18.7 57 6.0 SE 20 33 11 18 1015.8 1015.7 0.0
27/12:30pm 28.3 27.8 18.7 56 6.2 S 19 26 10 14 1015.9 1015.8 0.0
27/12:00pm 27.1 27.2 19.2 62 5.1 SE 17 26 9 14 1016.3 1016.2 0.0
27/11:30am 26.4 26.6 19.3 65 4.6 ESE 17 26 9 14 1016.7 1016.6 0.0
27/11:00am 25.1 27.9 20.4 75 3.1 S 6 11 3 6 1017.1 1017.0 0.0
27/10:42am 23.2 24.9 19.4 79 2.4 S 9 13 5 7 1017.2 1017.1 0.0
27/10:30am 22.8 23.2 19.8 83 1.9 S 17 24 9 13 1017.4 1017.3 0.0
27/10:00am 23.0 23.9 20.0 83 1.9 S 15 24 8 13 1017.2 1017.1 0.0
27/09:56am 23.3 24.3 20.2 83 2.0 S 15 20 8 11 1017.2 1017.1 0.0
27/09:47am 23.2 23.8 20.2 83 1.9 S 17 20 9 11 1017.2 1017.1 0.0
27/09:30am 23.0 24.3 20.1 84 1.9 S 13 19 7 10 1017.2 1017.1 0.0
27/09:00am 22.5 25.2 20.6 89 1.2 S 7 9 4 5 1017.2 1017.1 8.6
27/08:30am 21.7 26.2 21.5 99 0.1 CALM 0 0 0 0 1016.8 1016.7 8.6
27/08:17am 21.3 25.7 21.3 100 0.0 CALM 0 0 0 0 1016.9 1016.8 8.6
27/08:00am 21.1 25.4 21.1 100 0.0 CALM 0 0 0 0 1016.8 1016.7 8.6
27/07:30am 20.7 24.8 20.7 100 0.0 CALM 0 0 0 0 1016.4 1016.3 8.6
27/07:00am 20.2 24.0 20.2 100 0.0 CALM 0 0 0 0 1015.8 1015.7 8.6
27/06:30am 19.7 23.3 19.7 100 0.0 CALM 0 0 0 0 1015.4 1015.3 8.6
27/06:00am 19.4 21.5 19.4 100 0.0 N 7 9 4 5 1015.0 1014.9 8.6
27/05:30am 18.9 22.0 18.7 99 0.1 CALM 0 0 0 0 1015.1 1015.0 8.6
27/05:00am 19.3 21.5 19.1 99 0.1 NNE 6 7 3 4 1015.0 1014.9 8.6
27/04:45am 19.4 21.6 19.1 98 0.2 NE 6 7 3 4 1014.9 1014.8 8.6
27/04:30am 19.6 22.6 19.3 98 0.2 SE 2 7 1 4 1014.9 1014.8 8.6
27/04:08am 19.9 23.1 19.7 99 0.1 S 2 6 1 3 1014.8 1014.7 8.6
27/04:00am 19.9 22.3 19.7 99 0.1 S 6 7 3 4 1014.8 1014.7 8.6
27/03:49am 20.0 22.3 19.8 99 0.1 S 7 9 4 5 1014.8 1014.7 8.6
27/03:30am 20.1 23.0 19.9 99 0.1 SW 4 7 2 4 1014.8 1014.7 8.6
27/03:20am 20.2 23.9 19.9 98 0.2 CALM 0 0 0 0 1014.9 1014.8 8.6
27/03:00am 20.4 23.4 20.1 98 0.2 SSE 4 7 2 4 1015.0 1014.9 8.6
27/02:30am 20.6 24.5 20.4 99 0.1 CALM 0 0 0 0 1015.0 1014.9 8.6
27/02:20am 20.6 24.5 20.4 99 0.1 CALM 0 0 0 0 1015.1 1015.0 8.6
27/02:00am 20.6 24.5 20.3 98 0.2 CALM 0 0 0 0 1015.5 1015.4 8.6
27/01:30am 20.5 24.2 20.0 97 0.3 CALM 0 0 0 0 1015.8 1015.7 8.6
27/01:00am 20.7 24.4 20.0 96 0.4 CALM 0 0 0 0 1016.1 1016.0 8.6
27/12:54am 20.8 24.6 20.1 96 0.4 CALM 0 0 0 0 1016.1 1016.0 8.6
27/12:30am 21.1 25.0 20.4 96 0.5 CALM 0 0 0 0 1016.5 1016.4 8.6
27/12:17am 21.1 25.0 20.4 96 0.5 CALM 0 0 0 0 1016.8 1016.7 8.6
27/12:00am 21.1 25.0 20.4 96 0.5 CALM 0 0 0 0 1016.9 1016.8 8.6
 
Date/Time
EDT
Temp
°C
App
Temp
°C
Dew
Point
Rel
Hum
%
Delta-T
°C
Wind Press
QNH
hPa
Press
MSL
hPa
Rain
since 9 am
mm
Dir
 
Spd
km/h
Gust
km/h
Spd
kts
Gust
kts
26/11:31pm 20.9 24.7 20.2 96 0.4 CALM 0 0 0 0 1017.3 1017.2 8.6
26/11:30pm 20.9 24.7 20.2 96 0.4 CALM 0 0 0 0 1017.3 1017.2 8.6
26/11:09pm 20.9 24.7 20.1 95 0.5 CALM 0 0 0 0 1017.3 1017.2 8.6
26/11:01pm 21.0 24.8 20.2 95 0.5 CALM 0 0 0 0 1017.4 1017.3 8.6
26/11:00pm 21.0 24.8 20.2 95 0.5 CALM 0 0 0 0 1017.4 1017.3 8.6
26/10:30pm 21.3 25.2 20.3 94 0.6 CALM 0 0 0 0 1017.5 1017.4 8.6
26/10:14pm 21.3 25.2 20.3 94 0.6 CALM 0 0 0 0 1017.5 1017.4 8.6
26/10:00pm 21.2 25.0 20.2 94 0.6 CALM 0 4 0 2 1017.4 1017.3 8.6
26/09:30pm 21.4 25.2 20.2 93 0.8 CALM 0 0 0 0 1017.0 1016.9 8.6
26/09:00pm 21.5 24.6 20.3 93 0.8 S 4 7 2 4 1016.7 1016.6 8.6
26/08:30pm 21.8 25.7 20.4 92 0.9 CALM 0 0 0 0 1016.9 1016.8 8.6
26/08:00pm 21.9 25.6 20.0 89 1.2 CALM 0 0 0 0 1016.8 1016.7 8.6

Other Formats:

Comma delimited format used in spreadsheet applications
http://www.bom.gov.au/fwo/IDN60801/IDN60801.95570.axf

JavaScript Object Notation format (JSON) in row-major order
http://www.bom.gov.au/fwo/IDN60801/IDN60801.95570.json